Time;durP1;ratioP1;P1;durP2;ratioP2;P2;SDS_P1;SDS_P2;PMS_P1;PMS_P2;Temp;Humidity;BMP_temperature;BMP_pressure;BME280_temperature;BME280_humidity;BME280_pressure;Samples;Min_cycle;Max_cycle;Signal;HPM_P1;HPM_P2
2022/06/27 00:01:11;;;;;;;9.60;8.90;;;;;;;;;;5033987;28;20362;-51
2022/06/27 00:03:37;;;;;;;9.68;8.90;;;;;;;;;;5032681;28;20244;-51
2022/06/27 00:06:04;;;;;;;8.88;8.20;;;;;;;;;;5042464;28;20227;-51
2022/06/27 00:08:34;;;;;;;9.65;8.95;;;;;;;;;;5037062;28;20710;-51
2022/06/27 00:11:01;;;;;;;10.45;9.55;;;;;;;;;;5034044;28;20235;-51
2022/06/27 00:13:27;;;;;;;8.95;8.20;;;;;;;;;;5038608;28;20247;-51
2022/06/27 00:15:53;;;;;;;8.70;8.10;;;;;;;;;;5020367;28;20239;-51
2022/06/27 00:18:20;;;;;;;8.68;8.07;;;;;;;;;;5020587;28;20236;-51
2022/06/27 00:20:46;;;;;;;9.73;8.98;;;;;;;;;;5042197;28;20224;-51
2022/06/27 00:23:12;;;;;;;9.90;9.10;;;;;;;;;;5033630;28;20336;-50
2022/06/27 00:25:40;;;;;;;9.00;8.30;;;;;;;;;;5028403;28;20236;-51
2022/06/27 00:28:06;;;;;;;9.68;8.88;;;;;;;;;;5023781;28;20232;-51
2022/06/27 00:30:33;;;;;;;9.15;8.45;;;;;;;;;;5037652;28;20248;-51
2022/06/27 00:32:59;;;;;;;9.25;8.40;;;;;;;;;;5031187;28;20319;-51
2022/06/27 00:35:25;;;;;;;10.57;9.48;;;;;;;;;;5038076;28;20231;-50
2022/06/27 00:37:52;;;;;;;9.63;8.93;;;;;;;;;;5026594;28;20232;-51
2022/06/27 00:40:18;;;;;;;10.00;9.30;;;;;;;;;;5027279;28;20265;-52
2022/06/27 00:42:46;;;;;;;10.00;9.23;;;;;;;;;;5034662;28;20315;-51
2022/06/27 00:45:12;;;;;;;9.40;8.70;;;;;;;;;;5032614;28;20232;-52
2022/06/27 00:47:42;;;;;;;9.13;8.50;;;;;;;;;;5033758;28;20341;-51
2022/06/27 00:50:09;;;;;;;9.82;8.85;;;;;;;;;;5026078;28;20331;-51
2022/06/27 00:52:35;;;;;;;11.43;10.25;;;;;;;;;;5031638;28;20246;-51
2022/06/27 00:55:02;;;;;;;11.02;10.07;;;;;;;;;;5028086;28;20318;-52
2022/06/27 00:57:28;;;;;;;9.70;8.95;;;;;;;;;;5043862;28;20228;-52
2022/06/27 00:59:56;;;;;;;11.23;10.30;;;;;;;;;;5036755;28;20235;-51
2022/06/27 01:02:23;;;;;;;10.57;9.68;;;;;;;;;;5043794;28;20235;-51
2022/06/27 01:04:49;;;;;;;9.88;9.07;;;;;;;;;;5040796;28;20327;-52
2022/06/27 01:07:15;;;;;;;9.82;9.02;;;;;;;;;;5033263;28;20758;-53
2022/06/27 01:09:43;;;;;;;9.82;9.02;;;;;;;;;;5019814;28;20237;-52
2022/06/27 01:12:09;;;;;;;10.18;9.38;;;;;;;;;;5035725;28;20227;-52
2022/06/27 01:14:36;;;;;;;10.18;9.05;;;;;;;;;;5048664;28;20231;-51
2022/06/27 01:17:04;;;;;;;11.13;10.13;;;;;;;;;;5044353;28;20298;-51
2022/06/27 01:19:30;;;;;;;10.88;9.88;;;;;;;;;;5038804;28;20239;-52
2022/06/27 01:21:57;;;;;;;10.13;9.43;;;;;;;;;;5042507;28;20236;-52
2022/06/27 01:24:26;;;;;;;10.02;9.20;;;;;;;;;;5047655;28;20507;-51
2022/06/27 01:26:53;;;;;;;11.07;10.27;;;;;;;;;;5044750;28;20239;-51
2022/06/27 01:29:20;;;;;;;10.07;9.32;;;;;;;;;;5042121;28;20603;-50
2022/06/27 01:31:47;;;;;;;9.95;9.15;;;;;;;;;;5046714;28;20231;-52
2022/06/27 01:34:13;;;;;;;10.48;9.57;;;;;;;;;;5046791;28;20243;-53
2022/06/27 01:36:43;;;;;;;10.75;9.85;;;;;;;;;;5045919;28;20231;-50
2022/06/27 01:39:10;;;;;;;11.07;10.07;;;;;;;;;;5044235;28;20595;-52
2022/06/27 01:41:38;;;;;;;10.05;9.32;;;;;;;;;;5043466;28;20259;-51
2022/06/27 01:44:04;;;;;;;9.68;8.77;;;;;;;;;;5046353;28;20232;-51
2022/06/27 01:46:38;;;;;;;10.10;9.38;;;;;;;;;;5047050;28;20227;-51
2022/06/27 01:49:04;;;;;;;11.15;10.13;;;;;;;;;;5028325;28;20767;-52
2022/06/27 01:51:31;;;;;;;10.52;9.73;;;;;;;;;;5026217;28;20719;-51
2022/06/27 01:53:57;;;;;;;11.05;10.15;;;;;;;;;;5037392;28;20752;-51
2022/06/27 01:56:24;;;;;;;9.63;8.93;;;;;;;;;;5038189;28;20235;-51
2022/06/27 01:58:52;;;;;;;10.98;9.90;;;;;;;;;;5043094;28;20240;-51
2022/06/27 02:01:19;;;;;;;11.05;9.88;;;;;;;;;;5036413;28;20240;-52
2022/06/27 02:03:45;;;;;;;10.85;10.05;;;;;;;;;;5044342;28;20240;-52
2022/06/27 02:06:12;;;;;;;10.10;9.40;;;;;;;;;;5042101;28;20224;-50
2022/06/27 02:08:41;;;;;;;9.13;8.50;;;;;;;;;;5034314;28;20237;-50
2022/06/27 02:11:08;;;;;;;12.20;11.07;;;;;;;;;;5025872;28;20240;-51
2022/06/27 02:13:34;;;;;;;11.02;10.00;;;;;;;;;;5033569;28;20229;-51
2022/06/27 02:16:06;;;;;;;11.23;10.32;;;;;;;;;;5038312;28;20228;-51
2022/06/27 02:18:33;;;;;;;10.23;9.48;;;;;;;;;;5027573;28;20239;-51
2022/06/27 02:20:59;;;;;;;10.25;9.45;;;;;;;;;;5033175;28;20235;-52
2022/06/27 02:23:25;;;;;;;11.95;10.88;;;;;;;;;;5036830;28;20232;-50
2022/06/27 02:25:52;;;;;;;12.05;11.10;;;;;;;;;;5036551;28;20248;-51
2022/06/27 02:28:20;;;;;;;12.48;10.60;;;;;;;;;;5024592;28;20233;-51
2022/06/27 02:30:46;;;;;;;10.13;9.23;;;;;;;;;;5040020;28;20284;-52
2022/06/27 02:33:14;;;;;;;16.00;10.45;;;;;;;;;;5035983;28;20292;-51
2022/06/27 02:35:41;;;;;;;12.30;11.10;;;;;;;;;;5034715;28;20236;-52
2022/06/27 02:38:08;;;;;;;11.40;10.50;;;;;;;;;;5024204;28;20233;-51
2022/06/27 02:40:34;;;;;;;10.95;10.05;;;;;;;;;;5041882;28;20229;-51
2022/06/27 02:43:01;;;;;;;10.98;10.18;;;;;;;;;;5052937;28;20232;-52
2022/06/27 02:45:29;;;;;;;11.45;10.55;;;;;;;;;;5044656;28;20235;-51
2022/06/27 02:47:57;;;;;;;11.35;10.45;;;;;;;;;;5046924;28;20250;-51
2022/06/27 02:50:26;;;;;;;11.43;10.40;;;;;;;;;;5042950;28;20503;-50
2022/06/27 02:52:53;;;;;;;10.45;9.65;;;;;;;;;;5043722;28;20259;-51
2022/06/27 02:55:22;;;;;;;11.23;10.43;;;;;;;;;;5044560;28;20773;-52
2022/06/27 02:57:49;;;;;;;11.90;10.90;;;;;;;;;;5042630;28;20710;-52
2022/06/27 03:00:16;;;;;;;11.48;10.57;;;;;;;;;;5044473;28;20235;-51
2022/06/27 03:02:43;;;;;;;11.10;10.20;;;;;;;;;;5044625;28;20663;-51
2022/06/27 03:05:09;;;;;;;12.43;11.52;;;;;;;;;;5045649;28;20240;-51
2022/06/27 03:07:39;;;;;;;13.88;10.57;;;;;;;;;;5044686;28;20228;-51
2022/06/27 03:10:06;;;;;;;13.00;11.80;;;;;;;;;;5045188;28;20231;-51
2022/06/27 03:12:32;;;;;;;11.98;11.07;;;;;;;;;;5046856;28;20247;-51
2022/06/27 03:14:58;;;;;;;12.40;11.40;;;;;;;;;;5036598;28;20229;-51
2022/06/27 03:17:25;;;;;;;11.77;10.88;;;;;;;;;;5036082;28;20603;-50
2022/06/27 03:19:51;;;;;;;12.38;11.38;;;;;;;;;;5026383;28;20228;-51
2022/06/27 03:22:17;;;;;;;12.00;11.05;;;;;;;;;;5041887;28;20243;-50
2022/06/27 03:24:45;;;;;;;13.13;12.07;;;;;;;;;;5038223;28;20239;-51
2022/06/27 03:27:11;;;;;;;13.45;12.32;;;;;;;;;;5040713;28;20601;-50
2022/06/27 03:29:38;;;;;;;15.07;12.18;;;;;;;;;;5037474;28;20259;-50
2022/06/27 03:32:05;;;;;;;12.80;11.90;;;;;;;;;;5036683;28;20289;-51
2022/06/27 03:34:31;;;;;;;12.73;11.63;;;;;;;;;;5030709;28;20778;-52
2022/06/27 03:36:58;;;;;;;16.05;11.98;;;;;;;;;;5036086;28;20236;-51
2022/06/27 03:39:24;;;;;;;11.63;10.65;;;;;;;;;;5040538;28;20223;-50
2022/06/27 03:41:52;;;;;;;12.15;11.25;;;;;;;;;;5047768;28;20231;-51
2022/06/27 03:44:18;;;;;;;12.23;11.30;;;;;;;;;;5037952;28;20243;-51
2022/06/27 03:46:45;;;;;;;13.35;12.15;;;;;;;;;;5043171;28;20231;-51
2022/06/27 03:51:55;;;;;;;13.95;12.55;;;;;;;;;;5032567;28;20251;-53
2022/06/27 03:54:22;;;;;;;13.05;11.75;;;;;;;;;;5041050;28;20240;-51
2022/06/27 03:56:48;;;;;;;13.27;12.15;;;;;;;;;;5041670;28;20257;-51
2022/06/27 03:59:16;;;;;;;13.88;12.57;;;;;;;;;;5042220;28;20848;-52
2022/06/27 04:01:42;;;;;;;12.52;11.45;;;;;;;;;;5037896;28;20240;-52
2022/06/27 04:04:09;;;;;;;12.40;11.43;;;;;;;;;;5039690;28;20245;-51
2022/06/27 04:06:35;;;;;;;13.23;11.82;;;;;;;;;;5032682;28;20229;-50
2022/06/27 04:09:01;;;;;;;14.07;12.80;;;;;;;;;;5033232;28;20224;-52
2022/06/27 04:11:28;;;;;;;11.45;10.65;;;;;;;;;;5039795;28;20231;-51
2022/06/27 04:13:54;;;;;;;12.90;12.00;;;;;;;;;;5042657;28;20254;-50
2022/06/27 04:16:22;;;;;;;13.75;12.55;;;;;;;;;;5045756;28;20237;-51
2022/06/27 04:18:48;;;;;;;13.93;12.85;;;;;;;;;;5035788;28;20227;-52
2022/06/27 04:21:14;;;;;;;13.10;12.02;;;;;;;;;;5046361;28;20235;-51
2022/06/27 04:23:41;;;;;;;14.32;13.23;;;;;;;;;;5042768;28;20236;-51
2022/06/27 04:26:07;;;;;;;12.90;12.00;;;;;;;;;;5043694;28;20714;-51
2022/06/27 04:28:34;;;;;;;13.95;12.75;;;;;;;;;;5046390;28;20231;-52
2022/06/27 04:31:01;;;;;;;14.27;12.98;;;;;;;;;;5037244;28;20235;-51
2022/06/27 04:33:29;;;;;;;13.65;12.65;;;;;;;;;;5043478;28;20721;-49
2022/06/27 04:35:55;;;;;;;13.23;12.20;;;;;;;;;;5042167;28;20232;-51
2022/06/27 04:38:21;;;;;;;12.77;11.85;;;;;;;;;;5042631;28;20235;-52
2022/06/27 04:40:48;;;;;;;13.82;12.82;;;;;;;;;;5044001;28;20238;-52
2022/06/27 04:43:15;;;;;;;14.68;12.45;;;;;;;;;;5047417;28;20240;-51
2022/06/27 04:45:41;;;;;;;12.43;11.43;;;;;;;;;;5044490;28;20227;-52
2022/06/27 04:48:10;;;;;;;12.43;11.52;;;;;;;;;;5046045;28;20231;-52
2022/06/27 04:50:38;;;;;;;14.38;13.10;;;;;;;;;;5041816;28;20250;-51
2022/06/27 04:53:05;;;;;;;12.68;11.68;;;;;;;;;;5040905;28;20259;-51
2022/06/27 04:55:31;;;;;;;14.10;12.90;;;;;;;;;;5041336;28;20231;-51
2022/06/27 04:57:58;;;;;;;13.30;12.30;;;;;;;;;;5047854;28;20255;-51
2022/06/27 05:00:24;;;;;;;11.82;10.88;;;;;;;;;;5043807;28;20234;-52
2022/06/27 05:02:50;;;;;;;11.45;10.68;;;;;;;;;;5045095;28;20319;-51
2022/06/27 05:05:17;;;;;;;13.23;12.23;;;;;;;;;;5034763;28;20247;-55
2022/06/27 05:07:44;;;;;;;12.25;11.20;;;;;;;;;;5035065;28;20671;-51
2022/06/27 05:10:11;;;;;;;11.52;10.63;;;;;;;;;;5043187;28;20231;-52
2022/06/27 05:12:37;;;;;;;12.30;11.30;;;;;;;;;;5038343;28;20264;-52
2022/06/27 05:15:04;;;;;;;13.38;12.27;;;;;;;;;;5038903;28;20227;-51
2022/06/27 05:17:30;;;;;;;12.75;11.75;;;;;;;;;;5045717;28;20236;-52
2022/06/27 05:19:57;;;;;;;12.85;11.77;;;;;;;;;;5044604;28;20227;-52
2022/06/27 05:22:23;;;;;;;12.40;11.27;;;;;;;;;;5049266;28;20732;-52
2022/06/27 05:24:51;;;;;;;12.75;11.85;;;;;;;;;;5043789;28;20236;-51
2022/06/27 05:27:17;;;;;;;11.98;10.90;;;;;;;;;;5041341;28;20232;-54
2022/06/27 05:29:44;;;;;;;11.75;10.90;;;;;;;;;;5045332;28;20236;-52
2022/06/27 05:32:11;;;;;;;11.90;11.00;;;;;;;;;;5046735;28;20236;-50
2022/06/27 05:34:37;;;;;;;12.52;11.45;;;;;;;;;;5009911;28;1060187;-51
2022/06/27 05:37:06;;;;;;;11.32;10.52;;;;;;;;;;5042934;28;20231;-51
2022/06/27 05:39:34;;;;;;;12.15;11.13;;;;;;;;;;5041740;28;21069;-51
2022/06/27 05:42:01;;;;;;;11.82;10.93;;;;;;;;;;5041232;28;20319;-52
2022/06/27 05:44:28;;;;;;;12.57;11.38;;;;;;;;;;5045540;28;20319;-51
2022/06/27 05:46:56;;;;;;;11.75;10.65;;;;;;;;;;5044178;28;20239;-51
2022/06/27 05:49:23;;;;;;;11.57;10.50;;;;;;;;;;5050837;28;20289;-52
2022/06/27 05:51:51;;;;;;;12.50;11.20;;;;;;;;;;5041872;28;20228;-51
2022/06/27 05:54:17;;;;;;;11.63;10.63;;;;;;;;;;5045783;28;20315;-55
2022/06/27 05:56:44;;;;;;;11.52;10.60;;;;;;;;;;5045541;28;20240;-51
2022/06/27 05:59:12;;;;;;;11.50;10.70;;;;;;;;;;5042153;28;20231;-52
2022/06/27 06:01:39;;;;;;;11.48;10.52;;;;;;;;;;5046740;28;20306;-52
2022/06/27 06:04:06;;;;;;;10.70;9.90;;;;;;;;;;5046863;28;20241;-51
2022/06/27 06:06:33;;;;;;;12.25;11.27;;;;;;;;;;5025835;28;20266;-52
2022/06/27 06:08:59;;;;;;;11.13;10.23;;;;;;;;;;5026270;28;20260;-51
2022/06/27 06:11:27;;;;;;;13.18;11.98;;;;;;;;;;5030783;28;20320;-52
2022/06/27 06:13:53;;;;;;;12.63;10.07;;;;;;;;;;5023180;28;20243;-52
2022/06/27 06:16:22;;;;;;;12.32;11.23;;;;;;;;;;5032487;28;20774;-51
2022/06/27 06:18:52;;;;;;;12.60;11.50;;;;;;;;;;5029593;28;20236;-55
2022/06/27 06:21:19;;;;;;;10.82;10.02;;;;;;;;;;5025317;28;20246;-52
2022/06/27 06:23:46;;;;;;;11.95;10.85;;;;;;;;;;5031118;28;20239;-51
2022/06/27 06:26:14;;;;;;;11.27;10.27;;;;;;;;;;5034703;28;20616;-51
2022/06/27 06:28:40;;;;;;;11.35;10.35;;;;;;;;;;5037396;28;20240;-51
2022/06/27 06:31:08;;;;;;;12.15;11.02;;;;;;;;;;5032636;28;20228;-51
2022/06/27 06:33:36;;;;;;;12.13;10.23;;;;;;;;;;5025408;28;20237;-52
2022/06/27 06:36:03;;;;;;;11.02;10.18;;;;;;;;;;5024815;28;20233;-52
2022/06/27 06:38:29;;;;;;;11.13;10.27;;;;;;;;;;5042229;28;20259;-51
2022/06/27 06:40:56;;;;;;;11.02;10.07;;;;;;;;;;5029428;28;20241;-51
2022/06/27 06:43:22;;;;;;;10.15;9.35;;;;;;;;;;5039174;28;20319;-52
2022/06/27 06:45:48;;;;;;;11.68;10.77;;;;;;;;;;5041386;28;20235;-52
2022/06/27 06:48:17;;;;;;;10.55;9.73;;;;;;;;;;5032836;28;20319;-51
2022/06/27 06:50:45;;;;;;;11.00;10.15;;;;;;;;;;5033580;28;20231;-53
2022/06/27 06:53:12;;;;;;;10.88;9.88;;;;;;;;;;5027840;28;20252;-51
2022/06/27 06:55:38;;;;;;;10.68;9.77;;;;;;;;;;5039840;28;20224;-51
2022/06/27 06:58:04;;;;;;;11.20;10.32;;;;;;;;;;5042305;28;20692;-51
2022/06/27 07:00:31;;;;;;;11.45;9.98;;;;;;;;;;5030219;28;20244;-51
2022/06/27 07:02:58;;;;;;;11.95;10.85;;;;;;;;;;5029117;28;20309;-51
2022/06/27 07:05:25;;;;;;;11.60;9.85;;;;;;;;;;5031540;28;20262;-50
2022/06/27 07:07:54;;;;;;;10.85;9.85;;;;;;;;;;5037566;28;20228;-51
2022/06/27 07:10:22;;;;;;;10.98;10.07;;;;;;;;;;5034939;28;20232;-51
2022/06/27 07:12:49;;;;;;;10.18;9.25;;;;;;;;;;5031995;28;20242;-54
2022/06/27 07:15:15;;;;;;;10.20;9.40;;;;;;;;;;5031688;28;20311;-51
2022/06/27 07:17:43;;;;;;;9.63;8.77;;;;;;;;;;5032449;28;20240;-52
2022/06/27 07:20:10;;;;;;;10.52;9.63;;;;;;;;;;5028618;28;20298;-51
2022/06/27 07:22:38;;;;;;;11.05;10.18;;;;;;;;;;5032622;28;20235;-50
2022/06/27 07:25:07;;;;;;;10.00;9.10;;;;;;;;;;5026235;28;20723;-51
2022/06/27 07:27:34;;;;;;;9.55;8.65;;;;;;;;;;5030228;28;20620;-51
2022/06/27 07:30:01;;;;;;;9.05;8.43;;;;;;;;;;5030233;28;20233;-51
2022/06/27 07:32:27;;;;;;;8.93;8.27;;;;;;;;;;5029846;28;20239;-51
2022/06/27 07:34:54;;;;;;;11.23;9.18;;;;;;;;;;5031291;28;20244;-51
2022/06/27 07:37:21;;;;;;;9.18;8.32;;;;;;;;;;5026595;28;20263;-50
2022/06/27 07:39:47;;;;;;;9.30;8.70;;;;;;;;;;5035221;28;20315;-51
2022/06/27 07:42:15;;;;;;;9.15;8.35;;;;;;;;;;5036196;28;20228;-51
2022/06/27 07:44:42;;;;;;;8.05;7.45;;;;;;;;;;5032073;28;20239;-51
2022/06/27 07:47:08;;;;;;;7.63;7.03;;;;;;;;;;5042090;28;20227;-51
2022/06/27 07:49:35;;;;;;;8.63;7.75;;;;;;;;;;5042013;28;20777;-51
2022/06/27 07:52:01;;;;;;;8.25;7.55;;;;;;;;;;5041236;28;20234;-51
2022/06/27 07:54:28;;;;;;;8.77;8.00;;;;;;;;;;5042446;28;20240;-51
2022/06/27 07:56:55;;;;;;;8.05;7.45;;;;;;;;;;5044315;28;20236;-52
2022/06/27 07:59:25;;;;;;;7.93;7.13;;;;;;;;;;5041006;28;20227;-51
2022/06/27 08:01:51;;;;;;;7.47;6.90;;;;;;;;;;5040108;28;20231;-51
2022/06/27 08:04:18;;;;;;;7.78;7.07;;;;;;;;;;5039247;28;20235;-52
2022/06/27 08:06:46;;;;;;;6.93;6.32;;;;;;;;;;5041345;28;20251;-52
2022/06/27 08:09:12;;;;;;;8.50;7.22;;;;;;;;;;5038140;28;20255;-51
2022/06/27 08:11:40;;;;;;;9.43;7.57;;;;;;;;;;5044671;28;25736;-52
2022/06/27 08:14:07;;;;;;;6.82;6.32;;;;;;;;;;5043990;28;20374;-53
2022/06/27 08:16:36;;;;;;;7.00;6.32;;;;;;;;;;5044030;28;20610;-51
2022/06/27 08:19:03;;;;;;;7.05;6.30;;;;;;;;;;5015521;28;20231;-51
2022/06/27 08:21:30;;;;;;;8.10;6.28;;;;;;;;;;5011287;28;20229;-50
2022/06/27 08:23:58;;;;;;;7.00;6.10;;;;;;;;;;5006924;28;20644;-52
2022/06/27 08:26:25;;;;;;;5.60;5.07;;;;;;;;;;5010112;28;20719;-52
2022/06/27 08:28:52;;;;;;;6.50;6.00;;;;;;;;;;5028711;28;20711;-51
2022/06/27 08:31:19;;;;;;;8.70;6.63;;;;;;;;;;5036280;28;20774;-51
2022/06/27 08:33:49;;;;;;;5.43;4.75;;;;;;;;;;5031511;28;20612;-51
2022/06/27 08:36:16;;;;;;;4.50;4.15;;;;;;;;;;5038950;28;20322;-51
2022/06/27 08:38:46;;;;;;;5.40;4.90;;;;;;;;;;5029979;28;20760;-51
2022/06/27 08:41:13;;;;;;;8.45;4.95;;;;;;;;;;5039101;28;20585;-51
2022/06/27 08:43:40;;;;;;;4.88;4.57;;;;;;;;;;5037615;28;20275;-51
2022/06/27 08:46:06;;;;;;;4.28;3.97;;;;;;;;;;5042119;28;20228;-51
2022/06/27 08:48:34;;;;;;;6.65;4.82;;;;;;;;;;5043067;28;20227;-53
2022/06/27 08:51:06;;;;;;;4.75;4.35;;;;;;;;;;5040336;28;20659;-52
2022/06/27 08:53:33;;;;;;;4.25;3.95;;;;;;;;;;5038857;28;20243;-51
2022/06/27 08:56:00;;;;;;;6.50;3.63;;;;;;;;;;5039606;28;20235;-52
2022/06/27 08:58:27;;;;;;;3.92;3.63;;;;;;;;;;5041799;28;20223;-52
2022/06/27 09:00:53;;;;;;;4.07;3.83;;;;;;;;;;5040545;28;20239;-51
2022/06/27 09:03:21;;;;;;;4.15;3.85;;;;;;;;;;5035823;28;20231;-52
2022/06/27 09:05:54;;;;;;;3.63;3.42;;;;;;;;;;5039111;28;20236;-51
2022/06/27 09:08:22;;;;;;;3.60;3.30;;;;;;;;;;5024678;28;20235;-51
2022/06/27 09:10:49;;;;;;;3.50;3.25;;;;;;;;;;5031295;28;20289;-52
2022/06/27 09:13:16;;;;;;;3.42;3.22;;;;;;;;;;5032510;28;20243;-52
2022/06/27 09:15:49;;;;;;;4.60;4.18;;;;;;;;;;5035949;28;20239;-50
2022/06/27 09:18:17;;;;;;;3.58;3.03;;;;;;;;;;5040171;28;20240;-51
2022/06/27 09:20:45;;;;;;;5.35;3.47;;;;;;;;;;5030493;28;20239;-52
2022/06/27 09:23:26;;;;;;;3.78;3.55;;;;;;;;;;5028338;28;20267;-52
2022/06/27 09:25:58;;;;;;;3.83;3.50;;;;;;;;;;5044077;28;20721;-52
2022/06/27 09:28:36;;;;;;;4.03;3.83;;;;;;;;;;5023160;28;20238;-53
2022/06/27 09:31:02;;;;;;;3.50;3.30;;;;;;;;;;5043265;28;20231;-53
2022/06/27 09:33:31;;;;;;;4.00;3.70;;;;;;;;;;5029890;28;20715;-52
2022/06/27 09:35:57;;;;;;;4.13;3.83;;;;;;;;;;5024588;28;20275;-51
2022/06/27 09:38:25;;;;;;;3.42;3.22;;;;;;;;;;5023823;28;20726;-51
2022/06/27 09:40:51;;;;;;;4.85;3.83;;;;;;;;;;5046196;28;20236;-52
2022/06/27 09:43:22;;;;;;;4.43;4.03;;;;;;;;;;5031441;28;20255;-50
2022/06/27 09:45:48;;;;;;;4.57;3.92;;;;;;;;;;5020456;28;20232;-53
2022/06/27 09:48:15;;;;;;;4.63;3.80;;;;;;;;;;5040833;28;20825;-51
2022/06/27 09:50:43;;;;;;;3.72;3.53;;;;;;;;;;5037354;28;20248;-51
2022/06/27 09:53:10;;;;;;;4.68;3.88;;;;;;;;;;5035721;28;20246;-50
2022/06/27 09:55:37;;;;;;;4.82;3.63;;;;;;;;;;5046214;28;20261;-51
2022/06/27 09:58:07;;;;;;;3.90;3.60;;;;;;;;;;5032036;28;20225;-51
2022/06/27 10:00:34;;;;;;;6.95;4.00;;;;;;;;;;5030150;28;20233;-51
2022/06/27 10:03:01;;;;;;;3.83;3.40;;;;;;;;;;5027397;28;20238;-51
2022/06/27 10:05:28;;;;;;;3.72;3.42;;;;;;;;;;5046558;28;20231;-51
2022/06/27 10:07:55;;;;;;;3.28;2.90;;;;;;;;;;5037494;28;20236;-51
2022/06/27 10:10:22;;;;;;;3.25;2.80;;;;;;;;;;5034704;28;20285;-51
2022/06/27 10:12:57;;;;;;;5.10;2.50;;;;;;;;;;5030284;28;20240;-52
2022/06/27 10:15:28;;;;;;;3.40;3.13;;;;;;;;;;5024663;28;20248;-50
2022/06/27 10:17:57;;;;;;;3.72;2.83;;;;;;;;;;5022050;28;20244;-51
2022/06/27 10:20:31;;;;;;;2.75;2.55;;;;;;;;;;5045533;28;20246;-51
2022/06/27 10:23:18;;;;;;;3.08;2.78;;;;;;;;;;5030798;28;20278;-52
2022/06/27 10:25:45;;;;;;;3.10;2.90;;;;;;;;;;5042259;28;20760;-52
2022/06/27 10:28:18;;;;;;;2.55;2.45;;;;;;;;;;5043797;28;20236;-51
2022/06/27 10:30:45;;;;;;;2.90;2.70;;;;;;;;;;5039749;28;20236;-52
2022/06/27 10:33:30;;;;;;;2.67;2.47;;;;;;;;;;5037406;28;20238;-52
2022/06/27 10:36:10;;;;;;;4.05;3.15;;;;;;;;;;5030920;28;20225;-52
2022/06/27 10:38:44;;;;;;;3.65;3.35;;;;;;;;;;5033040;28;20232;-52
2022/06/27 10:41:11;;;;;;;2.92;2.72;;;;;;;;;;5039830;28;20232;-52
2022/06/27 10:43:42;;;;;;;5.57;2.80;;;;;;;;;;5047443;28;20322;-52
2022/06/27 10:46:27;;;;;;;2.70;2.60;;;;;;;;;;5033454;28;20234;-51
2022/06/27 10:48:54;;;;;;;3.20;3.00;;;;;;;;;;5028096;28;20237;-51
2022/06/27 10:51:22;;;;;;;3.20;3.00;;;;;;;;;;5034821;28;20231;-52
2022/06/27 10:53:49;;;;;;;2.97;2.78;;;;;;;;;;5040562;28;20243;-51
2022/06/27 10:56:31;;;;;;;3.10;2.90;;;;;;;;;;5027294;28;20239;-51
2022/06/27 10:58:57;;;;;;;2.95;2.72;;;;;;;;;;5038357;28;20231;-50
2022/06/27 11:01:23;;;;;;;3.25;3.00;;;;;;;;;;5031674;28;20231;-51
2022/06/27 11:03:50;;;;;;;3.72;2.75;;;;;;;;;;5025328;28;20247;-53
2022/06/27 11:06:17;;;;;;;2.67;2.47;;;;;;;;;;5026882;28;20248;-52
2022/06/27 11:08:46;;;;;;;3.60;3.30;;;;;;;;;;5037500;28;20235;-51
2022/06/27 11:11:15;;;;;;;2.97;2.67;;;;;;;;;;5041158;28;20755;-51
2022/06/27 11:13:43;;;;;;;3.97;3.67;;;;;;;;;;5036832;28;20926;-52
2022/06/27 11:16:10;;;;;;;3.65;3.10;;;;;;;;;;5037628;28;23870;-52
2022/06/27 11:18:41;;;;;;;5.93;3.17;;;;;;;;;;5045920;28;20232;-50
2022/06/27 11:21:07;;;;;;;3.67;3.40;;;;;;;;;;5042079;28;20228;-51
2022/06/27 11:23:47;;;;;;;7.15;3.40;;;;;;;;;;5043546;28;20236;-53
2022/06/27 11:26:15;;;;;;;6.47;3.40;;;;;;;;;;5041507;28;20963;-51
2022/06/27 11:34:10;;;;;;;3.25;2.95;;;;;;;;;;5038761;28;20246;-50
2022/06/27 11:36:39;;;;;;;2.90;2.70;;;;;;;;;;5041086;28;20227;-52
2022/06/27 11:39:07;;;;;;;3.35;3.05;;;;;;;;;;5037560;28;20619;-51
2022/06/27 11:41:38;;;;;;;6.43;3.40;;;;;;;;;;5043520;28;20234;-52
2022/06/27 11:44:06;;;;;;;3.13;2.92;;;;;;;;;;5039705;28;20227;-52
2022/06/27 11:46:34;;;;;;;4.05;2.92;;;;;;;;;;5030775;28;20224;-51
2022/06/27 11:49:02;;;;;;;4.63;3.03;;;;;;;;;;5036255;28;20577;-52
2022/06/27 11:51:30;;;;;;;3.10;2.90;;;;;;;;;;5038888;28;20223;-52
2022/06/27 11:53:57;;;;;;;3.58;3.25;;;;;;;;;;5033337;28;20227;-51
2022/06/27 11:56:24;;;;;;;3.17;2.80;;;;;;;;;;5020516;28;20413;-53
2022/06/27 11:58:53;;;;;;;2.70;2.50;;;;;;;;;;5024281;28;20233;-52
2022/06/27 12:01:19;;;;;;;4.72;2.97;;;;;;;;;;5042667;28;20239;-52
2022/06/27 12:04:04;;;;;;;4.90;3.10;;;;;;;;;;5030626;28;20239;-50
2022/06/27 12:06:30;;;;;;;7.43;3.65;;;;;;;;;;5036914;28;20250;-52
2022/06/27 12:09:01;;;;;;;3.30;2.92;;;;;;;;;;5037509;28;20787;-52
2022/06/27 12:11:29;;;;;;;2.45;2.30;;;;;;;;;;5025639;28;20287;-52
2022/06/27 12:14:00;;;;;;;2.58;2.47;;;;;;;;;;5018990;28;20251;-51
2022/06/27 12:16:27;;;;;;;3.92;2.47;;;;;;;;;;5033829;28;20752;-52
2022/06/27 12:18:53;;;;;;;3.70;2.80;;;;;;;;;;5029444;28;20239;-51
2022/06/27 12:21:21;;;;;;;3.35;2.40;;;;;;;;;;5034004;28;20427;-52
2022/06/27 12:23:48;;;;;;;4.20;2.50;;;;;;;;;;5039364;28;20700;-50
2022/06/27 12:26:14;;;;;;;3.55;2.63;;;;;;;;;;5032464;28;21716;-51
2022/06/27 12:28:41;;;;;;;3.80;2.92;;;;;;;;;;5034456;28;20245;-52
2022/06/27 12:31:08;;;;;;;3.45;2.60;;;;;;;;;;5032237;28;20223;-50
2022/06/27 12:33:35;;;;;;;4.35;2.35;;;;;;;;;;5034638;28;20232;-52
2022/06/27 12:36:01;;;;;;;2.35;2.15;;;;;;;;;;5028696;28;20236;-53
2022/06/27 12:38:27;;;;;;;3.35;2.30;;;;;;;;;;5038315;28;20231;-52
2022/06/27 12:41:11;;;;;;;2.78;2.58;;;;;;;;;;5034669;28;20258;-52
2022/06/27 12:43:37;;;;;;;2.67;2.28;;;;;;;;;;5037122;28;20246;-50
2022/06/27 12:46:05;;;;;;;3.10;2.80;;;;;;;;;;5023693;28;20239;-52
2022/06/27 12:48:33;;;;;;;2.88;2.63;;;;;;;;;;5037878;28;20327;-49
2022/06/27 12:51:00;;;;;;;3.05;2.85;;;;;;;;;;5035890;28;20832;-51
2022/06/27 12:53:26;;;;;;;3.03;2.55;;;;;;;;;;5037655;28;20235;-52
2022/06/27 12:55:53;;;;;;;4.97;2.90;;;;;;;;;;5037470;28;20235;-52
2022/06/27 12:58:19;;;;;;;2.45;2.25;;;;;;;;;;5037284;28;20235;-51
2022/06/27 13:00:46;;;;;;;8.00;2.28;;;;;;;;;;5043811;28;20309;-51
2022/06/27 13:03:12;;;;;;;2.58;2.47;;;;;;;;;;5033309;28;20231;-52
2022/06/27 13:05:40;;;;;;;3.00;2.80;;;;;;;;;;5044732;28;20231;-52
2022/06/27 13:08:07;;;;;;;3.90;2.67;;;;;;;;;;5040395;28;20226;-52
2022/06/27 13:10:34;;;;;;;2.75;2.55;;;;;;;;;;5039364;28;20227;-51
2022/06/27 13:13:00;;;;;;;2.55;2.35;;;;;;;;;;5034088;28;20223;-51
2022/06/27 13:15:29;;;;;;;7.18;2.30;;;;;;;;;;5027390;28;20242;-50
2022/06/27 13:17:55;;;;;;;4.25;2.55;;;;;;;;;;5039024;28;20235;-50
2022/06/27 13:20:22;;;;;;;2.55;2.35;;;;;;;;;;5031185;28;20872;-52
2022/06/27 13:22:49;;;;;;;2.08;1.80;;;;;;;;;;5029240;28;20230;-51
2022/06/27 13:25:16;;;;;;;2.00;1.90;;;;;;;;;;5031174;28;20712;-51
2022/06/27 13:27:42;;;;;;;2.25;2.08;;;;;;;;;;5033468;28;20235;-51
2022/06/27 13:30:09;;;;;;;4.00;2.08;;;;;;;;;;5036889;28;20223;-52
2022/06/27 13:32:35;;;;;;;2.15;1.70;;;;;;;;;;5041656;28;20222;-51
2022/06/27 13:35:01;;;;;;;2.60;2.20;;;;;;;;;;5045837;28;20266;-52
2022/06/27 13:37:28;;;;;;;2.65;1.90;;;;;;;;;;5042177;28;20299;-51
2022/06/27 13:39:56;;;;;;;1.85;1.75;;;;;;;;;;5037689;28;20239;-50
2022/06/27 13:42:23;;;;;;;2.15;1.95;;;;;;;;;;5032937;28;20238;-51
2022/06/27 13:44:49;;;;;;;1.98;1.70;;;;;;;;;;5036946;28;20300;-50
2022/06/27 13:47:16;;;;;;;4.03;1.83;;;;;;;;;;5041660;28;20243;-50
2022/06/27 13:49:42;;;;;;;2.28;2.05;;;;;;;;;;5036243;28;20235;-52
2022/06/27 13:52:09;;;;;;;2.65;1.77;;;;;;;;;;5044641;28;20231;-51
2022/06/27 13:54:35;;;;;;;1.90;1.80;;;;;;;;;;5027972;28;20240;-50
2022/06/27 13:57:03;;;;;;;5.20;1.70;;;;;;;;;;5036506;28;20231;-53
2022/06/27 13:59:30;;;;;;;1.55;1.45;;;;;;;;;;5041841;28;20318;-52
2022/06/27 14:01:56;;;;;;;2.95;1.60;;;;;;;;;;5040727;28;20246;-50
2022/06/27 14:04:22;;;;;;;1.98;1.70;;;;;;;;;;5034536;28;20235;-51
2022/06/27 14:09:33;;;;;;;3.10;2.00;;;;;;;;;;5034062;28;20720;-51
2022/06/27 14:11:59;;;;;;;2.03;1.80;;;;;;;;;;5033339;28;20886;-51
2022/06/27 14:14:27;;;;;;;2.53;1.80;;;;;;;;;;5030521;28;20236;-52
2022/06/27 14:16:53;;;;;;;1.92;1.70;;;;;;;;;;5021286;28;20234;-52
2022/06/27 14:19:20;;;;;;;2.25;1.88;;;;;;;;;;5050042;28;20241;-51
2022/06/27 14:21:47;;;;;;;2.28;2.00;;;;;;;;;;5038186;28;20293;-51
2022/06/27 14:24:13;;;;;;;3.20;2.53;;;;;;;;;;5028938;28;20241;-50
2022/06/27 14:26:40;;;;;;;4.55;2.28;;;;;;;;;;5038380;28;20229;-50
2022/06/27 14:29:06;;;;;;;2.03;1.90;;;;;;;;;;5041085;28;20230;-52
2022/06/27 14:31:35;;;;;;;2.42;2.03;;;;;;;;;;5039162;28;20333;-51
2022/06/27 14:34:01;;;;;;;2.35;2.15;;;;;;;;;;5042908;28;20235;-51
2022/06/27 14:36:28;;;;;;;4.20;2.75;;;;;;;;;;5046013;28;20480;-51
2022/06/27 14:38:56;;;;;;;2.63;2.42;;;;;;;;;;5044056;28;20712;-53
2022/06/27 14:41:22;;;;;;;4.55;2.03;;;;;;;;;;5044445;28;20310;-51
2022/06/27 14:43:49;;;;;;;2.20;2.10;;;;;;;;;;5051649;28;20293;-51
2022/06/27 14:46:15;;;;;;;2.47;2.28;;;;;;;;;;5045605;28;20231;-51